Airfield :
LOGIN :

Register | Disclaimer

   EN    FR    IT 

 










Legend :    VFR   Marginal VFR   IFR   Intensive IFR   Very Intensive IFR
Visi :
Ceiling :
>= 8 km
>= 3000ft
5 to 8 km
1000 to 3000 ft
1500m to 5 km
500 to 1000 ft
800 to 1500m
200 to 500 ft
< 800m
< 200 ft
Symbols :   Thunderstorms  Fog  Heavy snow  Heavy precipitations  Wind > 20 kt
SIGMETs :     Misc.  Thunderstorms  Icing  Turbulence  Mountain Waves  Volcanic Ashes






- Airport Elevation : 1895 ft


LSMM - Meiringen

CURRENT METAR :
  • 011220Z AUTO 28004KT 230V340 4200NDV -RA FEW011 BKN026 14/14 Q1014 RMK

EXPIRED METARs :
  • 011150Z AUTO 31005KT 250V040 4000NDV -RA FEW023 OVC031 13/13 Q1014 RMK
  • 011120Z AUTO 30004KT 210V340 3900NDV -RA SCT025 OVC032 14/13 Q1014 RMK
  • 011050Z AUTO 30005KT 270V010 3900NDV -RA FEW010 BKN014 OVC025 14/14 Q1013 RMK
  • 011020Z AUTO 31006KT 250V360 4100NDV -RA SCT008 BKN010 BKN022 14/14 Q1013 RERA RMK
  • 010950Z AUTO VRB04KT 3400NDV RA FEW008 BKN011 OVC025 13/13 Q1013 RMK

Expired Forecast.



MET'MAP, your aeronautical weather chart ! - Copyright ORBIFLY December 2007 - Disclaimer

ORBIFLY MET'MAP TEAM :

Programming & Development : Alexandra Zaïnal
Concept & original design : Baudouin d'Aumeries
Assistance for programming : Marc-Olivier Méhu
Technical & hardware support : Manuel Goepfert

Contact : metmap@orbifly.com




SOURCES & CREDITS :

   NOAA